sensor_id;sensor_type;location;lat;lon;timestamp;pressure;altitude;pressure_sealevel;temperature;humidity
29239;BME280;16267;48.194;11.546;2023-01-29T00:00:25;96838.69;;;1.59;84.96
29239;BME280;16267;48.194;11.546;2023-01-29T00:02:51;96846.63;;;1.59;84.87
29239;BME280;16267;48.194;11.546;2023-01-29T00:05:17;96843.97;;;1.59;85.14
29239;BME280;16267;48.194;11.546;2023-01-29T00:07:43;96845.06;;;1.58;84.93
29239;BME280;16267;48.194;11.546;2023-01-29T00:10:10;96847.69;;;1.58;85.07
29239;BME280;16267;48.194;11.546;2023-01-29T00:12:36;96849.56;;;1.57;85.00
29239;BME280;16267;48.194;11.546;2023-01-29T00:15:01;96842.75;;;1.56;85.15
29239;BME280;16267;48.194;11.546;2023-01-29T00:17:27;96847.28;;;1.55;84.94
29239;BME280;16267;48.194;11.546;2023-01-29T00:19:53;96846.81;;;1.53;85.05
29239;BME280;16267;48.194;11.546;2023-01-29T00:22:19;96856.63;;;1.53;84.92
29239;BME280;16267;48.194;11.546;2023-01-29T00:24:45;96860.03;;;1.53;84.95
29239;BME280;16267;48.194;11.546;2023-01-29T00:27:10;96855.84;;;1.52;85.08
29239;BME280;16267;48.194;11.546;2023-01-29T00:29:36;96861.44;;;1.51;85.39
29239;BME280;16267;48.194;11.546;2023-01-29T00:32:02;96869.38;;;1.51;84.95
29239;BME280;16267;48.194;11.546;2023-01-29T00:34:28;96865.97;;;1.50;85.27
29239;BME280;16267;48.194;11.546;2023-01-29T00:36:53;96857.25;;;1.50;85.02
29239;BME280;16267;48.194;11.546;2023-01-29T00:40:17;96858.34;;;1.49;85.40
29239;BME280;16267;48.194;11.546;2023-01-29T00:42:44;96860.97;;;1.49;85.25
29239;BME280;16267;48.194;11.546;2023-01-29T00:45:28;96858.66;;;1.47;85.19
29239;BME280;16267;48.194;11.546;2023-01-29T00:47:54;96857.44;;;1.45;85.23
29239;BME280;16267;48.194;11.546;2023-01-29T00:50:23;96856.66;;;1.44;85.19
29239;BME280;16267;48.194;11.546;2023-01-29T00:52:48;96866.44;;;1.44;84.82
29239;BME280;16267;48.194;11.546;2023-01-29T00:55:16;96868.31;;;1.43;85.30
29239;BME280;16267;48.194;11.546;2023-01-29T00:57:42;96863.81;;;1.44;85.12
29239;BME280;16267;48.194;11.546;2023-01-29T01:00:12;96860.38;;;1.43;85.20
29239;BME280;16267;48.194;11.546;2023-01-29T01:02:38;96858.50;;;1.44;85.53
29239;BME280;16267;48.194;11.546;2023-01-29T01:05:23;96861.97;;;1.44;85.36
29239;BME280;16267;48.194;11.546;2023-01-29T01:07:53;96854.03;;;1.44;85.11
29239;BME280;16267;48.194;11.546;2023-01-29T01:10:27;96857.44;;;1.45;85.02
29239;BME280;16267;48.194;11.546;2023-01-29T01:13:06;96861.97;;;1.44;85.43
29239;BME280;16267;48.194;11.546;2023-01-29T01:15:38;96860.84;;;1.45;84.84
29239;BME280;16267;48.194;11.546;2023-01-29T01:18:05;96860.38;;;1.43;84.68
29239;BME280;16267;48.194;11.546;2023-01-29T01:20:33;96863.81;;;1.44;84.96
29239;BME280;16267;48.194;11.546;2023-01-29T01:22:59;96860.09;;;1.45;84.96
29239;BME280;16267;48.194;11.546;2023-01-29T01:25:26;96867.25;;;1.44;84.56
29239;BME280;16267;48.194;11.546;2023-01-29T01:28:14;96865.69;;;1.43;85.10
29239;BME280;16267;48.194;11.546;2023-01-29T01:30:40;96867.25;;;1.44;84.74
29239;BME280;16267;48.194;11.546;2023-01-29T01:33:06;96872.53;;;1.44;84.76
29239;BME280;16267;48.194;11.546;2023-01-29T01:35:38;96873.94;;;1.42;84.12
29239;BME280;16267;48.194;11.546;2023-01-29T01:38:05;96868.66;;;1.42;84.08
29239;BME280;16267;48.194;11.546;2023-01-29T01:40:31;96868.50;;;1.38;83.03
29239;BME280;16267;48.194;11.546;2023-01-29T01:43:02;96872.25;;;1.37;83.58
29239;BME280;16267;48.194;11.546;2023-01-29T01:45:33;96860.13;;;1.36;83.42
29239;BME280;16267;48.194;11.546;2023-01-29T01:48:50;96863.06;;;1.34;83.62
29239;BME280;16267;48.194;11.546;2023-01-29T01:51:20;96866.50;;;1.35;83.57
29239;BME280;16267;48.194;11.546;2023-01-29T01:54:09;96863.38;;;1.33;83.02
29239;BME280;16267;48.194;11.546;2023-01-29T01:56:44;96864.47;;;1.32;82.70
29239;BME280;16267;48.194;11.546;2023-01-29T01:59:15;96863.72;;;1.31;82.58
29239;BME280;16267;48.194;11.546;2023-01-29T02:02:06;96867.13;;;1.32;82.79
29239;BME280;16267;48.194;11.546;2023-01-29T02:04:51;96859.97;;;1.32;82.83
29239;BME280;16267;48.194;11.546;2023-01-29T02:07:41;96862.94;;;1.31;82.88
29239;BME280;16267;48.194;11.546;2023-01-29T02:10:45;96868.53;;;1.29;82.05
29239;BME280;16267;48.194;11.546;2023-01-29T02:13:12;96868.53;;;1.29;80.91
29239;BME280;16267;48.194;11.546;2023-01-29T02:15:41;96866.22;;;1.28;80.90
29239;BME280;16267;48.194;11.546;2023-01-29T02:18:12;96876.00;;;1.27;81.41
29239;BME280;16267;48.194;11.546;2023-01-29T02:20:43;96871.06;;;1.26;81.28
29239;BME280;16267;48.194;11.546;2023-01-29T02:26:25;96869.94;;;1.27;81.83
29239;BME280;16267;48.194;11.546;2023-01-29T02:29:16;96869.94;;;1.27;81.83
29239;BME280;16267;48.194;11.546;2023-01-29T02:39:03;96861.56;;;1.25;81.74
29239;BME280;16267;48.194;11.546;2023-01-29T02:50:30;96847.72;;;1.28;82.51
29239;BME280;16267;48.194;11.546;2023-01-29T02:53:36;96835.56;;;1.27;82.23
29239;BME280;16267;48.194;11.546;2023-01-29T02:56:23;96841.31;;;1.29;82.64
29239;BME280;16267;48.194;11.546;2023-01-29T02:59:08;96848.47;;;1.28;82.44
29239;BME280;16267;48.194;11.546;2023-01-29T03:01:49;96845.84;;;1.28;82.73
29239;BME280;16267;48.194;11.546;2023-01-29T03:04:32;96844.28;;;1.27;81.92
29239;BME280;16267;48.194;11.546;2023-01-29T03:07:26;96845.06;;;1.28;82.25
29239;BME280;16267;48.194;11.546;2023-01-29T03:12:53;96847.72;;;1.28;82.74
29239;BME280;16267;48.194;11.546;2023-01-29T03:15:46;96851.91;;;1.29;82.72
29239;BME280;16267;48.194;11.546;2023-01-29T03:18:22;96847.38;;;1.29;82.55
29239;BME280;16267;48.194;11.546;2023-01-29T03:20:59;96849.25;;;1.29;82.89
29239;BME280;16267;48.194;11.546;2023-01-29T03:23:31;96850.78;;;1.30;82.98
29239;BME280;16267;48.194;11.546;2023-01-29T03:26:20;96856.88;;;1.30;82.74
29239;BME280;16267;48.194;11.546;2023-01-29T03:29:07;96864.81;;;1.30;82.87
29239;BME280;16267;48.194;11.546;2023-01-29T03:31:54;96859.53;;;1.30;82.50
29239;BME280;16267;48.194;11.546;2023-01-29T03:34:40;96857.97;;;1.29;82.65
29239;BME280;16267;48.194;11.546;2023-01-29T03:37:30;96858.72;;;1.30;82.42
29239;BME280;16267;48.194;11.546;2023-01-29T03:40:03;96857.97;;;1.29;82.97
29239;BME280;16267;48.194;11.546;2023-01-29T03:48:10;96848.16;;;1.30;82.90
29239;BME280;16267;48.194;11.546;2023-01-29T03:59:40;96814.75;;;1.25;82.42
29239;BME280;16267;48.194;11.546;2023-01-29T04:02:17;96820.81;;;1.26;82.21
29239;BME280;16267;48.194;11.546;2023-01-29T04:04:48;96820.03;;;1.25;81.89
29239;BME280;16267;48.194;11.546;2023-01-29T04:07:20;96812.88;;;1.26;81.52
29239;BME280;16267;48.194;11.546;2023-01-29T04:09:59;96817.38;;;1.25;81.68
29239;BME280;16267;48.194;11.546;2023-01-29T04:12:40;96818.78;;;1.23;80.63
29239;BME280;16267;48.194;11.546;2023-01-29T04:15:11;96818.78;;;1.23;81.47
29239;BME280;16267;48.194;11.546;2023-01-29T04:17:43;96819.56;;;1.23;81.57
29239;BME280;16267;48.194;11.546;2023-01-29T04:20:12;96826.72;;;1.23;81.33
29239;BME280;16267;48.194;11.546;2023-01-29T04:22:39;96825.97;;;1.22;81.37
29239;BME280;16267;48.194;11.546;2023-01-29T04:25:11;96828.59;;;1.22;81.63
29239;BME280;16267;48.194;11.546;2023-01-29T04:28:06;96834.97;;;1.21;81.25
29239;BME280;16267;48.194;11.546;2023-01-29T04:36:35;96829.69;;;1.21;81.87
29239;BME280;16267;48.194;11.546;2023-01-29T04:39:17;96837.63;;;1.21;81.63
29239;BME280;16267;48.194;11.546;2023-01-29T04:41:58;96833.09;;;1.22;81.87
29239;BME280;16267;48.194;11.546;2023-01-29T04:54:15;96826.25;;;1.21;81.71
29239;BME280;16267;48.194;11.546;2023-01-29T04:57:13;96816.47;;;1.21;81.51
29239;BME280;16267;48.194;11.546;2023-01-29T04:59:44;96816.47;;;1.21;81.37
29239;BME280;16267;48.194;11.546;2023-01-29T05:02:12;96819.09;;;1.21;81.71
29239;BME280;16267;48.194;11.546;2023-01-29T05:04:40;96824.38;;;1.21;81.51
29239;BME280;16267;48.194;11.546;2023-01-29T05:07:12;96825.97;;;1.22;81.64
29239;BME280;16267;48.194;11.546;2023-01-29T05:09:39;96841.03;;;1.22;81.67
29239;BME280;16267;48.194;11.546;2023-01-29T05:12:09;96840.25;;;1.21;81.85
29239;BME280;16267;48.194;11.546;2023-01-29T05:14:38;96837.63;;;1.21;81.54
29239;BME280;16267;48.194;11.546;2023-01-29T05:17:13;96835.75;;;1.22;81.52
29239;BME280;16267;48.194;11.546;2023-01-29T05:19:40;96842.91;;;1.21;81.44
29239;BME280;16267;48.194;11.546;2023-01-29T05:22:09;96839.50;;;1.21;81.51
29239;BME280;16267;48.194;11.546;2023-01-29T05:24:49;96849.28;;;1.20;81.50
29239;BME280;16267;48.194;11.546;2023-01-29T05:27:25;96854.59;;;1.20;81.61
29239;BME280;16267;48.194;11.546;2023-01-29T05:30:12;96861.41;;;1.21;81.73
29239;BME280;16267;48.194;11.546;2023-01-29T05:32:38;96862.50;;;1.20;81.56
29239;BME280;16267;48.194;11.546;2023-01-29T05:35:05;96869.69;;;1.20;81.32
29239;BME280;16267;48.194;11.546;2023-01-29T05:37:31;96864.69;;;1.18;80.56
29239;BME280;16267;48.194;11.546;2023-01-29T05:39:57;96869.22;;;1.18;80.49
29239;BME280;16267;48.194;11.546;2023-01-29T05:42:22;96865.03;;;1.17;80.84
29239;BME280;16267;48.194;11.546;2023-01-29T05:44:48;96866.09;;;1.16;80.64
29239;BME280;16267;48.194;11.546;2023-01-29T05:47:18;96873.25;;;1.15;80.88
29239;BME280;16267;48.194;11.546;2023-01-29T05:49:44;96874.03;;;1.16;81.02
29239;BME280;16267;48.194;11.546;2023-01-29T05:52:10;96874.03;;;1.16;81.34
29239;BME280;16267;48.194;11.546;2023-01-29T05:54:36;96869.50;;;1.16;81.48
29239;BME280;16267;48.194;11.546;2023-01-29T05:57:01;96866.09;;;1.16;81.57
29239;BME280;16267;48.194;11.546;2023-01-29T05:59:27;96871.38;;;1.16;81.47
29239;BME280;16267;48.194;11.546;2023-01-29T06:01:56;96873.25;;;1.15;81.15
29239;BME280;16267;48.194;11.546;2023-01-29T06:04:22;96877.00;;;1.14;81.19
29239;BME280;16267;48.194;11.546;2023-01-29T06:06:48;96860.03;;;1.15;81.11
29239;BME280;16267;48.194;11.546;2023-01-29T06:09:20;96861.91;;;1.15;81.18
29239;BME280;16267;48.194;11.546;2023-01-29T06:11:45;96854.28;;;1.13;80.62
29239;BME280;16267;48.194;11.546;2023-01-29T06:14:11;96864.09;;;1.13;80.72
29239;BME280;16267;48.194;11.546;2023-01-29T06:16:37;96855.41;;;1.12;80.89
29239;BME280;16267;48.194;11.546;2023-01-29T06:19:03;96855.41;;;1.12;80.99
29239;BME280;16267;48.194;11.546;2023-01-29T06:21:28;96851.97;;;1.11;81.24
29239;BME280;16267;48.194;11.546;2023-01-29T06:23:54;96851.97;;;1.11;80.68
29239;BME280;16267;48.194;11.546;2023-01-29T06:26:20;96860.97;;;1.10;81.03
29239;BME280;16267;48.194;11.546;2023-01-29T06:28:49;96851.22;;;1.11;81.17
29239;BME280;16267;48.194;11.546;2023-01-29T06:31:15;96859.91;;;1.11;81.46
29239;BME280;16267;48.194;11.546;2023-01-29T06:33:43;96866.28;;;1.10;80.88
29239;BME280;16267;48.194;11.546;2023-01-29T06:36:09;96871.56;;;1.10;80.72
29239;BME280;16267;48.194;11.546;2023-01-29T06:38:35;96872.34;;;1.11;80.78
29239;BME280;16267;48.194;11.546;2023-01-29T06:41:09;96871.56;;;1.10;80.99
29239;BME280;16267;48.194;11.546;2023-01-29T06:43:36;96867.84;;;1.11;80.83
29239;BME280;16267;48.194;11.546;2023-01-29T06:46:02;96874.19;;;1.10;80.92
29239;BME280;16267;48.194;11.546;2023-01-29T06:48:28;96868.91;;;1.10;80.85
29239;BME280;16267;48.194;11.546;2023-01-29T06:50:53;96875.00;;;1.11;81.19
29239;BME280;16267;48.194;11.546;2023-01-29T06:53:20;96872.66;;;1.09;80.71
29239;BME280;16267;48.194;11.546;2023-01-29T06:55:53;96879.06;;;1.08;81.03
29239;BME280;16267;48.194;11.546;2023-01-29T06:58:19;96867.06;;;1.11;81.30
29239;BME280;16267;48.194;11.546;2023-01-29T07:00:45;96868.16;;;1.10;80.95
29239;BME280;16267;48.194;11.546;2023-01-29T07:03:11;96873.13;;;1.11;81.41
29239;BME280;16267;48.194;11.546;2023-01-29T07:05:37;96877.66;;;1.11;81.12
29239;BME280;16267;48.194;11.546;2023-01-29T07:08:04;96875.00;;;1.11;80.93
29239;BME280;16267;48.194;11.546;2023-01-29T07:10:30;96858.34;;;1.10;81.24
29239;BME280;16267;48.194;11.546;2023-01-29T07:12:58;96863.31;;;1.12;81.44
29239;BME280;16267;48.194;11.546;2023-01-29T07:15:24;96867.06;;;1.11;81.37
29239;BME280;16267;48.194;11.546;2023-01-29T07:18:02;96854.28;;;1.13;81.03
29239;BME280;16267;48.194;11.546;2023-01-29T07:20:30;96843.72;;;1.13;81.09
29239;BME280;16267;48.194;11.546;2023-01-29T07:22:57;96843.72;;;1.13;81.12
29239;BME280;16267;48.194;11.546;2023-01-29T07:25:24;96847.47;;;1.12;80.18
29239;BME280;16267;48.194;11.546;2023-01-29T07:27:50;96848.22;;;1.13;80.16
29239;BME280;16267;48.194;11.546;2023-01-29T07:30:16;96847.47;;;1.12;80.29
29239;BME280;16267;48.194;11.546;2023-01-29T07:32:42;96840.28;;;1.13;80.73
29239;BME280;16267;48.194;11.546;2023-01-29T07:35:09;96846.06;;;1.15;80.95
29239;BME280;16267;48.194;11.546;2023-01-29T07:37:35;96842.16;;;1.12;79.26
29239;BME280;16267;48.194;11.546;2023-01-29T07:40:02;96836.88;;;1.12;79.93
29239;BME280;16267;48.194;11.546;2023-01-29T07:42:30;96836.13;;;1.11;80.02
29239;BME280;16267;48.194;11.546;2023-01-29T07:44:55;96834.53;;;1.10;78.85
29239;BME280;16267;48.194;11.546;2023-01-29T07:47:21;96837.81;;;1.07;79.52
29239;BME280;16267;48.194;11.546;2023-01-29T07:49:47;96835.94;;;1.08;79.71
29239;BME280;16267;48.194;11.546;2023-01-29T07:52:17;96839.69;;;1.07;78.95
29239;BME280;16267;48.194;11.546;2023-01-29T07:54:43;96833.00;;;1.09;79.14
29239;BME280;16267;48.194;11.546;2023-01-29T07:57:09;96832.69;;;1.11;79.03
29239;BME280;16267;48.194;11.546;2023-01-29T07:59:35;96828.19;;;1.11;78.94
29239;BME280;16267;48.194;11.546;2023-01-29T08:02:01;96833.13;;;1.13;79.63
29239;BME280;16267;48.194;11.546;2023-01-29T08:04:27;96836.13;;;1.11;78.59
29239;BME280;16267;48.194;11.546;2023-01-29T08:06:53;96827.06;;;1.13;78.47
29239;BME280;16267;48.194;11.546;2023-01-29T08:09:18;96827.53;;;1.15;78.66
29239;BME280;16267;48.194;11.546;2023-01-29T08:11:44;96831.91;;;1.10;77.57
29239;BME280;16267;48.194;11.546;2023-01-29T08:14:10;96831.91;;;1.10;78.19
29239;BME280;16267;48.194;11.546;2023-01-29T08:16:36;96830.22;;;1.06;76.12
29239;BME280;16267;48.194;11.546;2023-01-29T08:19:02;96833.63;;;1.06;77.69
29239;BME280;16267;48.194;11.546;2023-01-29T08:21:30;96829.91;;;1.07;77.60
29239;BME280;16267;48.194;11.546;2023-01-29T08:23:56;96834.53;;;1.10;78.38
29239;BME280;16267;48.194;11.546;2023-01-29T08:26:22;96843.72;;;1.13;78.76
29239;BME280;16267;48.194;11.546;2023-01-29T08:28:54;96845.72;;;1.16;79.02
29239;BME280;16267;48.194;11.546;2023-01-29T08:31:20;96842.78;;;1.18;79.36
29239;BME280;16267;48.194;11.546;2023-01-29T08:33:49;96850.53;;;1.23;80.04
29239;BME280;16267;48.194;11.546;2023-01-29T08:36:15;96854.06;;;1.27;79.90
29239;BME280;16267;48.194;11.546;2023-01-29T08:38:41;96844.28;;;1.27;78.97
29239;BME280;16267;48.194;11.546;2023-01-29T08:41:07;96846.59;;;1.29;79.10
29239;BME280;16267;48.194;11.546;2023-01-29T08:44:24;96864.47;;;1.32;79.21
29239;BME280;16267;48.194;11.546;2023-01-29T08:47:34;96863.38;;;1.33;78.41
29239;BME280;16267;48.194;11.546;2023-01-29T08:50:17;96869.91;;;1.36;78.59
29239;BME280;16267;48.194;11.546;2023-01-29T08:53:14;96875.19;;;1.36;77.92
29239;BME280;16267;48.194;11.546;2023-01-29T08:56:02;96874.13;;;1.37;77.92
29239;BME280;16267;48.194;11.546;2023-01-29T08:58:28;96878.00;;;1.39;78.65
29239;BME280;16267;48.194;11.546;2023-01-29T09:01:16;96880.66;;;1.39;78.16
29239;BME280;16267;48.194;11.546;2023-01-29T09:03:57;96886.38;;;1.41;78.35
29239;BME280;16267;48.194;11.546;2023-01-29T09:06:59;96885.59;;;1.41;77.65
29239;BME280;16267;48.194;11.546;2023-01-29T09:09:25;96885.31;;;1.42;78.15
29239;BME280;16267;48.194;11.546;2023-01-29T09:11:51;96893.25;;;1.42;78.73
29239;BME280;16267;48.194;11.546;2023-01-29T09:14:17;96894.78;;;1.43;78.61
29239;BME280;16267;48.194;11.546;2023-01-29T09:16:43;96897.41;;;1.43;78.22
29239;BME280;16267;48.194;11.546;2023-01-29T09:19:08;96904.28;;;1.44;77.92
29239;BME280;16267;48.194;11.546;2023-01-29T09:21:49;96909.56;;;1.44;77.85
29239;BME280;16267;48.194;11.546;2023-01-29T09:24:16;96909.56;;;1.44;77.57
29239;BME280;16267;48.194;11.546;2023-01-29T09:26:42;96913.00;;;1.45;77.93
29239;BME280;16267;48.194;11.546;2023-01-29T09:29:09;96918.28;;;1.45;77.75
29239;BME280;16267;48.194;11.546;2023-01-29T09:31:35;96910.78;;;1.47;77.84
29239;BME280;16267;48.194;11.546;2023-01-29T09:34:01;96911.59;;;1.47;78.03
29239;BME280;16267;48.194;11.546;2023-01-29T09:36:26;96918.41;;;1.48;78.37
29239;BME280;16267;48.194;11.546;2023-01-29T09:38:52;96919.19;;;1.49;78.17
29239;BME280;16267;48.194;11.546;2023-01-29T09:45:12;96924.47;;;1.49;77.91
29239;BME280;16267;48.194;11.546;2023-01-29T09:47:39;96930.53;;;1.49;77.93
29239;BME280;16267;48.194;11.546;2023-01-29T09:50:34;96929.47;;;1.50;77.72
29239;BME280;16267;48.194;11.546;2023-01-29T09:53:24;96922.28;;;1.51;77.52
29239;BME280;16267;48.194;11.546;2023-01-29T09:56:18;96929.94;;;1.52;77.64
29239;BME280;16267;48.194;11.546;2023-01-29T09:58:44;96926.94;;;1.54;78.11
29239;BME280;16267;48.194;11.546;2023-01-29T10:01:31;96917.13;;;1.54;77.82
29239;BME280;16267;48.194;11.546;2023-01-29T10:21:17;96918.09;;;1.50;74.87
29239;BME280;16267;48.194;11.546;2023-01-29T10:24:20;96918.09;;;1.50;75.68
29239;BME280;16267;48.194;11.546;2023-01-29T10:26:51;96919.34;;;1.52;75.66
29239;BME280;16267;48.194;11.546;2023-01-29T10:29:19;96911.41;;;1.52;75.94
29239;BME280;16267;48.194;11.546;2023-01-29T10:31:51;96910.31;;;1.53;75.76
29239;BME280;16267;48.194;11.546;2023-01-29T10:34:32;96914.19;;;1.56;76.11
29239;BME280;16267;48.194;11.546;2023-01-29T10:37:00;96908.91;;;1.56;76.51
29239;BME280;16267;48.194;11.546;2023-01-29T10:39:32;96901.41;;;1.58;76.40
29239;BME280;16267;48.194;11.546;2023-01-29T10:48:43;96903.09;;;1.63;76.57
29239;BME280;16267;48.194;11.546;2023-01-29T10:57:29;96897.16;;;1.66;76.17
29239;BME280;16267;48.194;11.546;2023-01-29T11:00:12;96898.72;;;1.67;76.32
29239;BME280;16267;48.194;11.546;2023-01-29T11:02:45;96893.88;;;1.69;75.93
29239;BME280;16267;48.194;11.546;2023-01-29T11:05:56;96893.56;;;1.70;76.13
29239;BME280;16267;48.194;11.546;2023-01-29T11:08:30;96889.81;;;1.71;76.39
29239;BME280;16267;48.194;11.546;2023-01-29T11:11:07;96883.75;;;1.71;75.75
29239;BME280;16267;48.194;11.546;2023-01-29T11:16:13;96879.56;;;1.70;74.53
29239;BME280;16267;48.194;11.546;2023-01-29T11:18:59;96878.78;;;1.69;74.40
29239;BME280;16267;48.194;11.546;2023-01-29T11:21:28;96883.28;;;1.69;73.81
29239;BME280;16267;48.194;11.546;2023-01-29T11:24:17;96879.75;;;1.65;73.52
29239;BME280;16267;48.194;11.546;2023-01-29T11:26:47;96872.25;;;1.67;74.09
29239;BME280;16267;48.194;11.546;2023-01-29T11:32:23;96863.88;;;1.65;73.07
29239;BME280;16267;48.194;11.546;2023-01-29T11:35:21;96856.06;;;1.68;74.14
29239;BME280;16267;48.194;11.546;2023-01-29T11:37:48;96864.00;;;1.68;73.75
29239;BME280;16267;48.194;11.546;2023-01-29T11:40:49;96862.91;;;1.69;74.23
29239;BME280;16267;48.194;11.546;2023-01-29T11:43:30;96848.13;;;1.68;72.60
29239;BME280;16267;48.194;11.546;2023-01-29T11:46:03;96850.28;;;1.66;74.04
29239;BME280;16267;48.194;11.546;2023-01-29T11:51:24;96822.56;;;1.72;74.51
29239;BME280;16267;48.194;11.546;2023-01-29T11:53:55;96808.56;;;1.72;73.66
29239;BME280;16267;48.194;11.546;2023-01-29T11:56:41;96801.13;;;1.65;72.06
29239;BME280;16267;48.194;11.546;2023-01-29T12:02:43;96786.13;;;1.48;71.83
29239;BME280;16267;48.194;11.546;2023-01-29T12:05:37;96785.50;;;1.51;72.60
29239;BME280;16267;48.194;11.546;2023-01-29T12:08:16;96770.06;;;1.53;72.44
29239;BME280;16267;48.194;11.546;2023-01-29T12:10:42;96771.31;;;1.56;73.05
29239;BME280;16267;48.194;11.546;2023-01-29T12:15:39;96785.13;;;1.62;73.50
29239;BME280;16267;48.194;11.546;2023-01-29T12:18:47;96788.66;;;1.66;74.15
29239;BME280;16267;48.194;11.546;2023-01-29T12:22:07;96786.16;;;1.69;74.96
29239;BME280;16267;48.194;11.546;2023-01-29T12:31:41;96807.59;;;1.76;73.06
29239;BME280;16267;48.194;11.546;2023-01-29T12:37:38;96790.16;;;1.75;73.66
29239;BME280;16267;48.194;11.546;2023-01-29T12:40:14;96781.88;;;1.77;73.71
29239;BME280;16267;48.194;11.546;2023-01-29T12:42:45;96781.19;;;1.68;72.24
29239;BME280;16267;48.194;11.546;2023-01-29T12:45:23;96783.44;;;1.57;71.70
29239;BME280;16267;48.194;11.546;2023-01-29T12:47:55;96781.25;;;1.59;73.13
29239;BME280;16267;48.194;11.546;2023-01-29T12:50:32;96767.06;;;1.64;73.97
29239;BME280;16267;48.194;11.546;2023-01-29T12:55:44;96759.13;;;1.64;72.34
29239;BME280;16267;48.194;11.546;2023-01-29T12:58:23;96757.25;;;1.64;73.98
29239;BME280;16267;48.194;11.546;2023-01-29T13:00:55;96746.84;;;1.59;71.99
29239;BME280;16267;48.194;11.546;2023-01-29T13:06:15;96735.09;;;1.48;72.58
29239;BME280;16267;48.194;11.546;2023-01-29T13:08:50;96736.81;;;1.44;72.88
29239;BME280;16267;48.194;11.546;2023-01-29T13:17:08;96716.56;;;1.48;72.75
29239;BME280;16267;48.194;11.546;2023-01-29T13:19:41;96716.69;;;1.51;74.18
29239;BME280;16267;48.194;11.546;2023-01-29T13:22:21;96703.28;;;1.56;74.67
29239;BME280;16267;48.194;11.546;2023-01-29T13:24:48;96710.38;;;1.44;73.15
29239;BME280;16267;48.194;11.546;2023-01-29T13:27:25;96714.59;;;1.45;73.62
29239;BME280;16267;48.194;11.546;2023-01-29T13:29:52;96715.94;;;1.51;74.69
29239;BME280;16267;48.194;11.546;2023-01-29T13:32:25;96710.44;;;1.56;75.00
29239;BME280;16267;48.194;11.546;2023-01-29T13:34:56;96713.22;;;1.60;75.17
29239;BME280;16267;48.194;11.546;2023-01-29T13:37:33;96712.00;;;1.57;73.32
29239;BME280;16267;48.194;11.546;2023-01-29T13:40:02;96698.63;;;1.53;72.57
29239;BME280;16267;48.194;11.546;2023-01-29T13:42:48;96697.53;;;1.54;73.08
29239;BME280;16267;48.194;11.546;2023-01-29T13:45:32;96694.47;;;1.52;72.81
29239;BME280;16267;48.194;11.546;2023-01-29T13:48:21;96693.81;;;1.55;74.11
29239;BME280;16267;48.194;11.546;2023-01-29T13:50:50;96685.53;;;1.57;74.44
29239;BME280;16267;48.194;11.546;2023-01-29T13:53:33;96683.00;;;1.61;75.06
29239;BME280;16267;48.194;11.546;2023-01-29T13:56:29;96682.31;;;1.51;72.97
29239;BME280;16267;48.194;11.546;2023-01-29T13:58:56;96682.00;;;1.53;74.03
29239;BME280;16267;48.194;11.546;2023-01-29T14:06:53;96679.94;;;1.59;74.04
29239;BME280;16267;48.194;11.546;2023-01-29T14:12:02;96675.53;;;1.63;73.70
29239;BME280;16267;48.194;11.546;2023-01-29T14:17:17;96662.38;;;1.54;73.16
29239;BME280;16267;48.194;11.546;2023-01-29T14:20:01;96658.94;;;1.53;73.65
29239;BME280;16267;48.194;11.546;2023-01-29T14:22:29;96664.38;;;1.57;74.63
29239;BME280;16267;48.194;11.546;2023-01-29T14:25:00;96671.53;;;1.56;74.42
29239;BME280;16267;48.194;11.546;2023-01-29T14:27:28;96680.88;;;1.54;73.91
29239;BME280;16267;48.194;11.546;2023-01-29T14:30:06;96677.78;;;1.52;74.57
29239;BME280;16267;48.194;11.546;2023-01-29T14:32:38;96674.38;;;1.51;73.73
29239;BME280;16267;48.194;11.546;2023-01-29T14:35:26;96694.13;;;1.54;74.48
29239;BME280;16267;48.194;11.546;2023-01-29T14:37:58;96694.13;;;1.54;74.18
29239;BME280;16267;48.194;11.546;2023-01-29T14:40:27;96699.88;;;1.56;74.55
29239;BME280;16267;48.194;11.546;2023-01-29T14:43:07;96701.75;;;1.55;74.17
29239;BME280;16267;48.194;11.546;2023-01-29T14:45:47;96708.88;;;1.55;74.26
29239;BME280;16267;48.194;11.546;2023-01-29T14:48:44;96711.53;;;1.55;73.76
29239;BME280;16267;48.194;11.546;2023-01-29T14:51:15;96708.56;;;1.56;74.10
29239;BME280;16267;48.194;11.546;2023-01-29T14:54:00;96711.28;;;1.48;73.13
29239;BME280;16267;48.194;11.546;2023-01-29T14:56:58;96706.00;;;1.48;74.75
29239;BME280;16267;48.194;11.546;2023-01-29T14:59:35;96702.69;;;1.51;74.51
29239;BME280;16267;48.194;11.546;2023-01-29T15:02:21;96684.84;;;1.48;73.78
29239;BME280;16267;48.194;11.546;2023-01-29T15:04:50;96687.47;;;1.48;74.80
29239;BME280;16267;48.194;11.546;2023-01-29T15:07:38;96687.94;;;1.50;74.61
29239;BME280;16267;48.194;11.546;2023-01-29T15:12:56;96686.72;;;1.47;74.12
29239;BME280;16267;48.194;11.546;2023-01-29T15:15:50;96677.66;;;1.48;74.74
29239;BME280;16267;48.194;11.546;2023-01-29T15:18:40;96683.41;;;1.50;74.65
29239;BME280;16267;48.194;11.546;2023-01-29T15:21:16;96681.84;;;1.49;74.52
29239;BME280;16267;48.194;11.546;2023-01-29T15:23:42;96694.78;;;1.51;74.81
29239;BME280;16267;48.194;11.546;2023-01-29T15:26:22;96689.03;;;1.49;73.90
29239;BME280;16267;48.194;11.546;2023-01-29T15:29:00;96691.34;;;1.50;74.43
29239;BME280;16267;48.194;11.546;2023-01-29T15:31:26;96697.84;;;1.32;73.00
29239;BME280;16267;48.194;11.546;2023-01-29T15:33:55;96689.03;;;1.28;73.37
29239;BME280;16267;48.194;11.546;2023-01-29T15:36:29;96694.44;;;1.31;74.67
29239;BME280;16267;48.194;11.546;2023-01-29T15:41:37;96693.50;;;1.36;74.89
29239;BME280;16267;48.194;11.546;2023-01-29T15:44:03;96693.91;;;1.38;75.94
29239;BME280;16267;48.194;11.546;2023-01-29T15:46:33;96695.47;;;1.39;75.78
29239;BME280;16267;48.194;11.546;2023-01-29T15:49:06;96698.56;;;1.41;75.45
29239;BME280;16267;48.194;11.546;2023-01-29T15:51:33;96701.09;;;1.38;74.94
29239;BME280;16267;48.194;11.546;2023-01-29T15:54:02;96693.16;;;1.38;74.92